Главная страница
METAR-TAF:

METAR-TAF

Аэропорты :

Тунис-Карфаген

Тунис, Тунис

широта: 36-50N, долгота: 010-14E, высота над уровнем моря: 3 м

Текущие метеонаблюдения

Эта сводка был подготовлена 45 минут назад, в 22:00 UTC
Ветер 9 Узел от юго-западный, изменяющийся между южный-юго-западный и западный
Температура 15°C
Влажность 72%
Давление 1023 hPa
Видимость 10 км и более
Отдельные облака на высоте 2300 фута

METAR: DTTA 092200Z 23009KT 200V280 9999 SCT023 15/10 Q1023 NOSIG

Время: 23:45 (22:45 UTC)

Прогноз

Эта сводка был подготовлена 5 часа и 45 минут назад, в 17:00 UTC
Прогноз действительный с 09-го 18 UTC до 10-го 18 UTC
Ветер 15 Узел от западный с порывами до 35 Узел
Видимость 10 км и более
Отдельные облака на высоте 2300 фута
изменения
С 10-го 10 UTC до 10-го 12 UTC
Ветер 22 Узел от северо-западный с порывами до 40 Узел

TAF: DTTA 091700Z 0918/1018 27015G35KT 9999 SCT023 BECMG 1010/1012 31022G40KT

Метеонаблюдения и прогнозы для более 4000 аэропортов (сводки METAR и TAF).

Имеющиеся станции представлены на карте желтыми и красными точками.

Чтобы увидеть название станции, наведите на нее мышь.

Затем щелкните, чтобы увидеть метеонаблюдения и метеопрогнозы.

Управление картой: чтобы увеличить масштаб, щелкните зеленые кнопки с черным крестиком; чтобы уменьшить масштаб, щелкните зеленую кнопку с тире; для просмотра соседних карт щелкайте зеленые стрелки.


METAR-TAF: